首页
METAR-TAF:

METAR-TAF

机场 :

Scottsbluff, 內布拉斯加州, 美国

纬度: 41-52-01N, 经度: 103-35-09W, 海拔: 1208米

当前天气观测

该预报发布于1小时和9分钟前的22:53 UTC
风速10节,风向东转东南,有时为14节阵风
温度 34°C
湿度 22%
气压 1015 hPa
能見度: 16.1公里
少量云层高于3300英尺
散云层高于9500英尺
多云层高于11000英尺

METAR: KBFF 152253Z AUTO 11010G14KT 10SM FEW033 SCT095 BKN110 34/09 A2996 RMK AO2 LTG DSNT N AND NW RAB39E51 SLP084 P0000 T03390089

时间: 18:02 (00:02 UTC)

预报

该预报发布于28分钟前的23:34 UTC
预报有效从16日的 00点(UTC)到 16日的 24点(UTC)
风速11节,风向西
能見度: 10公里
多云层高于8000英尺, 积雨云.
附近有雷暴
从 16日的 0500点(UTC)
风速5节,风向北转西北
能見度: 10公里
少量云层高于15000英尺

TAF: KBFF 152334Z 1600/1624 26011KT P6SM VCTS BKN080CB FM160500 34005KT P6SM FEW150

超过4000个机场的气象观测和天气预报(METAR&TAF报告)。

可查询的气象台以黄色和红色小点在地图上表示。

将鼠标移到小点上方,可查看气象台名称。

然后点击查看天气观测和预报。

如需切换地图:点击带黑十字的绿色按钮放大地图;点击带横线的绿色按钮缩小地图;或者点击绿色箭头查看邻近地区的地图。


METAR-TAF: